Time;durP1;ratioP1;P1;durP2;ratioP2;P2;SDS_P1;SDS_P2;PMS_P1;PMS_P2;Temp;Humidity;BMP_temperature;BMP_pressure;BME280_temperature;BME280_humidity;BME280_pressure;Samples;Min_cycle;Max_cycle;Signal;HPM_P1;HPM_P2
2022/04/27 00:00:28;;;;;;;18.98;10.50;;;;;;;;;;5059898;28;20036;-81
2022/04/27 00:02:54;;;;;;;17.35;11.32;;;;;;;;;;5041086;28;20017;-82
2022/04/27 00:05:19;;;;;;;16.30;10.75;;;;;;;;;;5058453;28;20044;-81
2022/04/27 00:07:45;;;;;;;17.75;11.40;;;;;;;;;;5057919;28;20036;-81
2022/04/27 00:10:11;;;;;;;22.08;12.80;;;;;;;;;;5058730;28;20051;-81
2022/04/27 00:12:37;;;;;;;19.85;12.27;;;;;;;;;;5059864;28;20055;-81
2022/04/27 00:15:04;;;;;;;20.48;13.40;;;;;;;;;;5059450;28;20024;-82
2022/04/27 00:17:29;;;;;;;21.35;12.88;;;;;;;;;;5060398;28;20093;-81
2022/04/27 00:19:58;;;;;;;23.23;14.10;;;;;;;;;;5059636;28;20052;-83
2022/04/27 00:22:23;;;;;;;21.95;13.63;;;;;;;;;;5057025;28;20024;-82
2022/04/27 00:24:49;;;;;;;21.80;13.90;;;;;;;;;;5059746;28;20039;-82
2022/04/27 00:27:15;;;;;;;22.25;13.75;;;;;;;;;;5059567;28;20159;-82
2022/04/27 00:29:41;;;;;;;24.70;14.77;;;;;;;;;;5060325;28;20063;-82
2022/04/27 00:32:07;;;;;;;22.63;14.52;;;;;;;;;;5059611;28;20025;-83
2022/04/27 00:34:32;;;;;;;25.92;15.75;;;;;;;;;;5059368;28;20033;-83
2022/04/27 00:36:57;;;;;;;26.90;14.98;;;;;;;;;;5059455;28;20056;-81
2022/04/27 00:39:23;;;;;;;27.65;15.63;;;;;;;;;;5059356;28;20021;-83
2022/04/27 00:42:01;;;;;;;25.15;15.27;;;;;;;;;;5058642;28;20033;-80
2022/04/27 00:44:32;;;;;;;20.50;12.90;;;;;;;;;;5053156;28;20013;-82
2022/04/27 00:46:58;;;;;;;22.83;14.32;;;;;;;;;;5058909;28;20033;-81
2022/04/27 00:49:26;;;;;;;27.35;15.13;;;;;;;;;;5055536;28;20031;-81
2022/04/27 00:51:51;;;;;;;26.70;15.15;;;;;;;;;;5041414;28;20029;-83
2022/04/27 00:54:22;;;;;;;23.92;14.73;;;;;;;;;;5059066;28;20104;-81
2022/04/27 00:56:49;;;;;;;24.73;14.90;;;;;;;;;;5059274;28;20380;-81
2022/04/27 00:59:14;;;;;;;23.27;14.80;;;;;;;;;;5059326;28;20029;-81
2022/04/27 01:01:40;;;;;;;29.25;14.93;;;;;;;;;;5058958;28;20039;-81
2022/04/27 01:04:07;;;;;;;27.10;15.77;;;;;;;;;;5060425;28;20021;-80
2022/04/27 01:06:37;;;;;;;27.40;15.25;;;;;;;;;;5059026;28;20037;-82
2022/04/27 01:09:02;;;;;;;29.15;17.15;;;;;;;;;;5047203;28;20029;-81
2022/04/27 01:11:28;;;;;;;31.17;17.33;;;;;;;;;;5043834;28;20497;-82
2022/04/27 01:13:53;;;;;;;30.10;17.58;;;;;;;;;;5059626;28;20025;-81
2022/04/27 01:16:18;;;;;;;32.47;18.52;;;;;;;;;;5058878;28;20060;-83
2022/04/27 01:18:45;;;;;;;31.15;17.58;;;;;;;;;;5041543;28;20506;-80
2022/04/27 01:21:11;;;;;;;31.65;18.65;;;;;;;;;;5054545;28;20031;-83
2022/04/27 01:23:37;;;;;;;37.40;20.75;;;;;;;;;;5059811;28;20033;-83
2022/04/27 01:26:05;;;;;;;36.30;19.15;;;;;;;;;;5041548;28;20040;-83
2022/04/27 01:28:32;;;;;;;37.92;18.92;;;;;;;;;;5042439;28;20108;-83
2022/04/27 01:31:09;;;;;;;39.95;19.30;;;;;;;;;;5060291;28;20024;-82
2022/04/27 01:33:35;;;;;;;38.25;19.95;;;;;;;;;;5056416;28;20112;-80
2022/04/27 01:36:08;;;;;;;41.88;20.65;;;;;;;;;;5055569;28;20025;-80
2022/04/27 01:38:35;;;;;;;43.83;20.73;;;;;;;;;;5061812;28;20036;-80
2022/04/27 01:41:00;;;;;;;41.25;20.23;;;;;;;;;;5057974;28;20084;-81
2022/04/27 01:43:25;;;;;;;45.42;22.35;;;;;;;;;;5057835;28;20059;-80
2022/04/27 01:45:54;;;;;;;39.95;21.35;;;;;;;;;;5058693;28;20046;-82
2022/04/27 01:48:20;;;;;;;44.88;19.95;;;;;;;;;;5056509;28;20013;-82
2022/04/27 01:50:45;;;;;;;37.20;20.15;;;;;;;;;;5055596;28;20025;-81
2022/04/27 01:55:55;;;;;;;36.85;20.13;;;;;;;;;;5060937;28;20125;-82
2022/04/27 01:58:20;;;;;;;41.53;21.63;;;;;;;;;;5061713;28;20028;-82
2022/04/27 02:00:47;;;;;;;39.70;20.25;;;;;;;;;;5061683;28;20056;-83
2022/04/27 02:03:13;;;;;;;40.38;20.60;;;;;;;;;;5060298;28;20021;-83
2022/04/27 02:05:40;;;;;;;40.25;19.52;;;;;;;;;;5058765;28;20033;-83
2022/04/27 02:08:05;;;;;;;46.38;21.13;;;;;;;;;;5056711;28;20025;-83
2022/04/27 02:10:31;;;;;;;39.42;20.73;;;;;;;;;;5048471;28;20400;-83
2022/04/27 02:12:56;;;;;;;37.83;18.67;;;;;;;;;;5056624;28;20091;-83
2022/04/27 02:15:22;;;;;;;36.85;19.70;;;;;;;;;;5044481;28;20033;-84
2022/04/27 02:17:50;;;;;;;37.70;18.33;;;;;;;;;;5062488;28;20776;-81
2022/04/27 02:20:18;;;;;;;37.05;20.50;;;;;;;;;;5062847;28;20025;-82
2022/04/27 02:22:43;;;;;;;37.65;18.88;;;;;;;;;;5043738;28;20052;-81
2022/04/27 02:25:09;;;;;;;36.00;18.25;;;;;;;;;;5059518;28;20035;-83
2022/04/27 02:27:35;;;;;;;31.65;18.00;;;;;;;;;;5052336;28;20062;-83
2022/04/27 02:30:01;;;;;;;33.35;16.52;;;;;;;;;;5060896;28;20040;-81
2022/04/27 02:32:27;;;;;;;38.70;19.58;;;;;;;;;;5062185;28;20036;-84
2022/04/27 02:34:53;;;;;;;40.53;19.90;;;;;;;;;;5061740;28;20029;-84
2022/04/27 02:37:18;;;;;;;35.50;19.42;;;;;;;;;;5061073;28;20024;-83
2022/04/27 02:39:43;;;;;;;32.10;16.98;;;;;;;;;;5061947;28;20529;-83
2022/04/27 02:42:09;;;;;;;32.85;16.65;;;;;;;;;;5062157;28;20029;-83
2022/04/27 02:44:34;;;;;;;32.85;17.13;;;;;;;;;;5061442;28;20115;-84
2022/04/27 02:46:59;;;;;;;36.28;18.90;;;;;;;;;;5044684;28;20024;-83
2022/04/27 02:52:09;;;;;;;33.85;17.17;;;;;;;;;;5060947;28;20142;-82
2022/04/27 02:54:35;;;;;;;33.20;17.30;;;;;;;;;;5056520;28;20043;-83
2022/04/27 02:57:01;;;;;;;32.08;15.77;;;;;;;;;;5060648;28;20033;-83
2022/04/27 02:59:26;;;;;;;27.20;15.77;;;;;;;;;;5061363;28;20024;-82
2022/04/27 03:01:52;;;;;;;29.35;16.42;;;;;;;;;;5062065;28;20445;-82
2022/04/27 03:04:17;;;;;;;28.65;15.40;;;;;;;;;;5059688;28;20729;-81
2022/04/27 03:06:42;;;;;;;28.95;15.85;;;;;;;;;;5059371;28;20028;-82
2022/04/27 03:09:08;;;;;;;27.77;15.27;;;;;;;;;;5051914;28;20029;-81
2022/04/27 03:11:33;;;;;;;28.92;15.35;;;;;;;;;;5046764;28;20410;-80
2022/04/27 03:13:58;;;;;;;30.25;15.52;;;;;;;;;;5053591;28;20040;-82
2022/04/27 03:16:24;;;;;;;25.42;14.20;;;;;;;;;;5060014;28;20024;-81
2022/04/27 03:18:49;;;;;;;27.73;14.20;;;;;;;;;;5041278;28;20027;-81
2022/04/27 03:21:15;;;;;;;30.77;15.65;;;;;;;;;;5045765;28;20029;-81
2022/04/27 03:23:40;;;;;;;29.63;14.52;;;;;;;;;;5058584;28;20048;-81
2022/04/27 03:26:05;;;;;;;30.98;15.40;;;;;;;;;;5058771;28;20053;-80
2022/04/27 03:28:31;;;;;;;29.40;13.93;;;;;;;;;;5059597;28;20029;-80
2022/04/27 03:30:56;;;;;;;26.58;14.68;;;;;;;;;;5054959;28;20028;-81
2022/04/27 03:33:22;;;;;;;29.90;16.30;;;;;;;;;;5059912;28;20016;-81
2022/04/27 03:35:47;;;;;;;25.88;14.40;;;;;;;;;;5057628;28;20052;-82
2022/04/27 03:38:15;;;;;;;35.17;15.52;;;;;;;;;;5058954;28;20067;-82
2022/04/27 03:40:44;;;;;;;27.00;14.30;;;;;;;;;;5059609;28;20028;-82
2022/04/27 03:43:09;;;;;;;30.98;14.35;;;;;;;;;;5047997;28;20080;-81
2022/04/27 03:45:35;;;;;;;24.63;14.43;;;;;;;;;;5059713;28;20075;-82
2022/04/27 03:48:01;;;;;;;25.85;14.52;;;;;;;;;;5059919;28;20080;-82
2022/04/27 03:50:27;;;;;;;26.55;14.10;;;;;;;;;;5053765;28;20471;-82
2022/04/27 03:52:52;;;;;;;28.23;14.07;;;;;;;;;;5049971;28;20025;-82
2022/04/27 03:55:17;;;;;;;24.02;13.63;;;;;;;;;;5059376;28;20494;-82
2022/04/27 03:57:43;;;;;;;21.50;13.30;;;;;;;;;;5068240;28;20040;-82
2022/04/27 04:00:09;;;;;;;21.75;12.65;;;;;;;;;;5061808;28;20506;-82
2022/04/27 04:02:36;;;;;;;21.83;12.45;;;;;;;;;;5060187;28;20493;-80
2022/04/27 04:05:03;;;;;;;22.10;13.18;;;;;;;;;;5055318;28;20042;-82
2022/04/27 04:07:28;;;;;;;19.65;12.15;;;;;;;;;;5059037;28;20017;-81
2022/04/27 04:09:54;;;;;;;20.50;11.45;;;;;;;;;;5057901;28;20086;-81
2022/04/27 04:12:19;;;;;;;18.65;12.45;;;;;;;;;;5059019;28;20040;-82
2022/04/27 04:14:45;;;;;;;19.33;11.77;;;;;;;;;;5057832;28;20020;-80
2022/04/27 04:17:10;;;;;;;17.60;11.75;;;;;;;;;;5058630;28;20051;-82
2022/04/27 04:19:35;;;;;;;19.60;11.73;;;;;;;;;;5058802;28;20020;-81
2022/04/27 04:22:01;;;;;;;18.00;11.07;;;;;;;;;;5058735;28;20040;-83
2022/04/27 04:24:27;;;;;;;19.50;10.98;;;;;;;;;;5058198;28;20088;-82
2022/04/27 04:29:37;;;;;;;20.70;12.40;;;;;;;;;;5060141;28;20071;-82
2022/04/27 04:32:03;;;;;;;22.67;11.88;;;;;;;;;;5060612;28;20025;-82
2022/04/27 04:34:28;;;;;;;22.85;12.88;;;;;;;;;;5058696;28;20025;-83
2022/04/27 04:36:53;;;;;;;23.83;12.95;;;;;;;;;;5059836;28;20027;-81
2022/04/27 04:39:19;;;;;;;21.58;12.65;;;;;;;;;;5056980;28;20017;-83
2022/04/27 04:41:44;;;;;;;20.08;12.18;;;;;;;;;;5059057;28;20020;-82
2022/04/27 04:44:10;;;;;;;20.77;12.38;;;;;;;;;;5058859;28;20021;-83
2022/04/27 04:46:35;;;;;;;19.67;11.98;;;;;;;;;;5061918;28;20021;-82
2022/04/27 04:49:01;;;;;;;19.02;11.90;;;;;;;;;;5058961;28;20043;-82
2022/04/27 04:51:26;;;;;;;17.83;11.35;;;;;;;;;;5063336;28;20021;-82
2022/04/27 04:53:52;;;;;;;18.65;11.77;;;;;;;;;;5062051;28;20552;-82
2022/04/27 04:56:17;;;;;;;19.00;11.70;;;;;;;;;;5063428;28;20029;-83
2022/04/27 04:58:42;;;;;;;16.10;10.77;;;;;;;;;;5063069;28;20032;-81
2022/04/27 05:01:08;;;;;;;17.88;12.02;;;;;;;;;;5068370;28;20103;-82
2022/04/27 05:03:36;;;;;;;17.65;11.15;;;;;;;;;;5067853;28;20065;-79
2022/04/27 05:06:02;;;;;;;18.30;11.73;;;;;;;;;;5064317;28;20419;-80
2022/04/27 05:08:28;;;;;;;19.65;12.07;;;;;;;;;;5065917;28;20037;-81
2022/04/27 05:10:54;;;;;;;20.27;12.68;;;;;;;;;;5058873;28;20025;-80
2022/04/27 05:13:19;;;;;;;21.95;12.90;;;;;;;;;;5049379;28;20028;-81
2022/04/27 05:15:44;;;;;;;22.85;12.70;;;;;;;;;;5039284;28;20018;-82
2022/04/27 05:18:10;;;;;;;19.73;12.10;;;;;;;;;;5055802;28;20017;-81
2022/04/27 05:20:37;;;;;;;18.98;11.18;;;;;;;;;;5048414;28;20028;-82
2022/04/27 05:23:02;;;;;;;23.75;12.73;;;;;;;;;;5020725;28;20048;-80
2022/04/27 05:25:28;;;;;;;19.50;12.02;;;;;;;;;;5048790;28;20460;-82
2022/04/27 05:27:53;;;;;;;20.95;12.38;;;;;;;;;;5059439;28;20052;-81
2022/04/27 05:33:03;;;;;;;21.48;11.30;;;;;;;;;;5058831;28;20051;-83
2022/04/27 05:35:28;;;;;;;19.92;10.77;;;;;;;;;;5057041;28;20029;-84
2022/04/27 05:37:53;;;;;;;16.77;11.07;;;;;;;;;;5057906;28;20154;-81
2022/04/27 05:40:19;;;;;;;16.38;10.63;;;;;;;;;;5058858;28;20407;-83
2022/04/27 05:42:45;;;;;;;14.60;10.32;;;;;;;;;;5051824;28;20025;-83
2022/04/27 05:45:11;;;;;;;18.70;11.20;;;;;;;;;;5058755;28;20052;-82
2022/04/27 05:47:36;;;;;;;16.83;10.25;;;;;;;;;;5058880;28;20024;-82
2022/04/27 05:50:04;;;;;;;19.05;10.45;;;;;;;;;;5051794;28;20025;-82
2022/04/27 05:52:30;;;;;;;17.98;11.40;;;;;;;;;;5044612;28;20054;-82
2022/04/27 05:54:55;;;;;;;18.00;11.25;;;;;;;;;;5062349;28;20024;-82
2022/04/27 05:57:20;;;;;;;22.02;12.98;;;;;;;;;;5054884;28;20114;-82
2022/04/27 05:59:47;;;;;;;21.73;12.60;;;;;;;;;;5041836;28;20037;-82
2022/04/27 06:02:12;;;;;;;21.88;12.98;;;;;;;;;;5042740;28;20491;-81
2022/04/27 06:04:38;;;;;;;26.45;13.50;;;;;;;;;;5039535;28;20034;-81
2022/04/27 06:07:06;;;;;;;24.35;13.02;;;;;;;;;;5042245;28;20026;-80
2022/04/27 06:09:31;;;;;;;24.00;13.57;;;;;;;;;;5043313;28;20440;-82
2022/04/27 06:11:57;;;;;;;22.90;13.80;;;;;;;;;;5042489;28;20064;-81
2022/04/27 06:14:24;;;;;;;19.70;12.50;;;;;;;;;;5039082;28;20021;-82
2022/04/27 06:16:50;;;;;;;23.75;13.77;;;;;;;;;;5041184;28;20027;-82
2022/04/27 06:19:15;;;;;;;21.98;12.57;;;;;;;;;;5040979;28;20028;-81
2022/04/27 06:21:40;;;;;;;23.75;12.38;;;;;;;;;;5034628;28;20303;-82
2022/04/27 06:24:06;;;;;;;21.55;12.10;;;;;;;;;;5042489;28;20048;-82
2022/04/27 06:26:33;;;;;;;21.90;12.52;;;;;;;;;;5041379;28;20510;-81
2022/04/27 06:28:59;;;;;;;22.63;12.48;;;;;;;;;;5042583;28;20022;-81
2022/04/27 06:31:25;;;;;;;19.20;11.30;;;;;;;;;;5042497;28;20026;-82
2022/04/27 06:33:50;;;;;;;21.38;11.85;;;;;;;;;;5042265;28;20434;-83
2022/04/27 06:36:16;;;;;;;21.90;12.77;;;;;;;;;;5041533;28;20028;-82
2022/04/27 06:38:41;;;;;;;19.33;11.77;;;;;;;;;;5039994;28;20057;-81
2022/04/27 06:41:06;;;;;;;20.00;11.77;;;;;;;;;;5045178;28;20029;-81
2022/04/27 06:43:32;;;;;;;25.85;12.85;;;;;;;;;;5029095;28;20032;-81
2022/04/27 06:45:59;;;;;;;24.10;11.65;;;;;;;;;;5040439;28;20030;-82
2022/04/27 06:48:24;;;;;;;17.42;11.35;;;;;;;;;;5044310;28;20349;-83
2022/04/27 06:50:50;;;;;;;17.42;10.88;;;;;;;;;;5049476;28;20452;-83
2022/04/27 06:53:15;;;;;;;14.63;10.10;;;;;;;;;;5039557;28;20040;-82
2022/04/27 06:55:40;;;;;;;19.05;11.55;;;;;;;;;;5042379;28;20502;-83
2022/04/27 06:58:06;;;;;;;17.08;11.80;;;;;;;;;;5055365;28;20422;-82
2022/04/27 07:00:31;;;;;;;16.27;10.75;;;;;;;;;;5060333;28;20035;-81
2022/04/27 07:02:57;;;;;;;13.63;10.63;;;;;;;;;;5060802;28;20494;-83
2022/04/27 07:05:25;;;;;;;16.52;10.63;;;;;;;;;;5059994;28;20021;-83
2022/04/27 07:07:50;;;;;;;17.80;10.38;;;;;;;;;;5059527;28;20051;-81
2022/04/27 07:10:17;;;;;;;17.40;12.10;;;;;;;;;;5060365;28;20038;-81
2022/04/27 07:12:42;;;;;;;15.20;10.85;;;;;;;;;;5041777;28;20029;-80
2022/04/27 07:15:08;;;;;;;16.77;11.25;;;;;;;;;;5057831;28;20016;-82
2022/04/27 07:17:34;;;;;;;17.48;11.40;;;;;;;;;;5060341;28;20467;-82
2022/04/27 07:19:59;;;;;;;17.10;10.45;;;;;;;;;;5060814;28;20029;-82
2022/04/27 07:22:25;;;;;;;16.23;10.52;;;;;;;;;;5060699;28;20050;-80
2022/04/27 07:24:50;;;;;;;16.02;10.48;;;;;;;;;;5059039;28;20028;-82
2022/04/27 07:27:16;;;;;;;14.43;10.40;;;;;;;;;;5042731;28;20040;-80
2022/04/27 07:29:42;;;;;;;12.73;9.05;;;;;;;;;;5059979;28;20025;-81
2022/04/27 07:32:07;;;;;;;12.65;9.25;;;;;;;;;;5042912;28;20059;-80
2022/04/27 07:34:33;;;;;;;12.35;8.20;;;;;;;;;;5059040;28;20035;-84
2022/04/27 07:36:58;;;;;;;12.07;7.65;;;;;;;;;;5060179;28;20518;-82
2022/04/27 07:39:27;;;;;;;13.00;8.27;;;;;;;;;;5057601;28;20403;-81
2022/04/27 07:41:52;;;;;;;11.13;8.30;;;;;;;;;;5058459;28;20035;-83
2022/04/27 07:44:17;;;;;;;11.82;8.40;;;;;;;;;;5058951;28;20017;-82
2022/04/27 07:46:47;;;;;;;10.05;6.90;;;;;;;;;;5059051;28;20395;-83
2022/04/27 07:49:14;;;;;;;9.27;6.70;;;;;;;;;;5072630;28;20383;-82
2022/04/27 07:51:40;;;;;;;10.63;7.22;;;;;;;;;;5042271;28;20464;-81
2022/04/27 07:54:05;;;;;;;8.93;5.80;;;;;;;;;;5041544;28;20018;-81
2022/04/27 07:56:31;;;;;;;8.18;5.85;;;;;;;;;;5060046;28;20440;-80
2022/04/27 07:58:56;;;;;;;6.82;5.55;;;;;;;;;;5059942;28;20029;-81
2022/04/27 08:01:21;;;;;;;7.47;5.95;;;;;;;;;;5049915;28;20021;-81
2022/04/27 08:03:47;;;;;;;9.43;5.95;;;;;;;;;;5048232;28;20025;-80
2022/04/27 08:06:12;;;;;;;6.95;4.95;;;;;;;;;;5054735;28;20037;-81
2022/04/27 08:08:38;;;;;;;7.43;6.15;;;;;;;;;;5056369;28;20025;-82
2022/04/27 08:11:04;;;;;;;8.70;5.95;;;;;;;;;;5058032;28;20067;-82
2022/04/27 08:13:29;;;;;;;9.00;5.25;;;;;;;;;;5059529;28;20398;-81
2022/04/27 08:15:55;;;;;;;9.30;5.60;;;;;;;;;;5058677;28;20384;-81
2022/04/27 08:18:20;;;;;;;7.45;5.50;;;;;;;;;;5058692;28;20397;-80
2022/04/27 08:23:32;;;;;;;8.50;5.75;;;;;;;;;;5052273;28;20028;-80
2022/04/27 08:26:00;;;;;;;6.85;5.18;;;;;;;;;;5057294;28;20043;-81
2022/04/27 08:28:27;;;;;;;6.65;5.30;;;;;;;;;;5056043;28;20115;-80
2022/04/27 08:30:53;;;;;;;7.03;4.90;;;;;;;;;;5057073;28;20406;-81
2022/04/27 08:33:19;;;;;;;7.00;5.07;;;;;;;;;;5052685;28;20513;-80
2022/04/27 08:35:45;;;;;;;6.15;4.60;;;;;;;;;;5058956;28;20482;-81
2022/04/27 08:38:11;;;;;;;6.85;4.68;;;;;;;;;;5058600;28;20021;-82
2022/04/27 08:40:45;;;;;;;8.57;4.90;;;;;;;;;;5057667;28;20051;-81
2022/04/27 08:43:12;;;;;;;14.13;5.50;;;;;;;;;;5056644;28;20025;-82
2022/04/27 08:45:42;;;;;;;6.63;4.40;;;;;;;;;;5057411;28;20403;-81
2022/04/27 08:48:08;;;;;;;6.00;4.22;;;;;;;;;;5058475;28;20032;-81
2022/04/27 08:50:34;;;;;;;7.90;5.03;;;;;;;;;;5057112;28;20029;-80
2022/04/27 08:53:00;;;;;;;11.27;4.95;;;;;;;;;;5057246;28;20031;-81
2022/04/27 08:55:28;;;;;;;6.00;4.80;;;;;;;;;;5056759;28;20044;-82
2022/04/27 08:58:17;;;;;;;6.75;4.80;;;;;;;;;;5036865;28;20044;-82
2022/04/27 09:00:44;;;;;;;10.73;5.00;;;;;;;;;;5088973;23;20051;-81
2022/04/27 09:03:30;;;;;;;6.57;4.88;;;;;;;;;;5073201;28;20017;-80
2022/04/27 09:05:58;;;;;;;7.43;4.97;;;;;;;;;;5073608;28;20031;-80
2022/04/27 09:08:25;;;;;;;5.80;4.40;;;;;;;;;;5095847;28;20431;-81
2022/04/27 09:11:10;;;;;;;11.70;4.63;;;;;;;;;;5080411;28;20027;-81
2022/04/27 09:13:35;;;;;;;8.98;4.75;;;;;;;;;;5078050;28;20031;-81
2022/04/27 09:16:02;;;;;;;5.85;4.20;;;;;;;;;;5084465;28;20428;-81
2022/04/27 09:21:29;;;;;;;5.45;4.10;;;;;;;;;;5084770;28;20059;-80
2022/04/27 09:24:03;;;;;;;7.90;4.57;;;;;;;;;;5083094;28;20029;-81
2022/04/27 09:26:31;;;;;;;9.50;4.53;;;;;;;;;;5094613;28;20027;-81
2022/04/27 09:28:56;;;;;;;8.23;4.85;;;;;;;;;;5079010;28;20044;-82
2022/04/27 09:31:30;;;;;;;6.03;4.47;;;;;;;;;;5083683;28;20117;-81
2022/04/27 09:34:03;;;;;;;5.35;4.10;;;;;;;;;;5078993;28;20028;-81
2022/04/27 09:36:29;;;;;;;5.63;4.13;;;;;;;;;;5075234;28;20040;-82
2022/04/27 09:38:57;;;;;;;6.43;4.25;;;;;;;;;;5075263;28;20028;-81
2022/04/27 09:41:45;;;;;;;6.00;4.63;;;;;;;;;;5084124;28;20024;-83
2022/04/27 09:44:28;;;;;;;6.68;4.90;;;;;;;;;;5101368;28;20043;-82
2022/04/27 09:46:54;;;;;;;5.85;4.20;;;;;;;;;;5090068;28;20034;-83
2022/04/27 09:49:19;;;;;;;6.38;4.88;;;;;;;;;;5083743;28;20103;-83
2022/04/27 09:51:49;;;;;;;6.43;4.60;;;;;;;;;;5075039;28;20020;-83
2022/04/27 09:54:20;;;;;;;5.40;3.90;;;;;;;;;;5081529;28;20017;-80
2022/04/27 09:56:51;;;;;;;5.17;4.07;;;;;;;;;;5081018;28;20079;-83
2022/04/27 09:59:20;;;;;;;5.18;4.15;;;;;;;;;;5063320;28;20029;-84
2022/04/27 10:01:47;;;;;;;7.47;4.45;;;;;;;;;;5071893;28;20059;-83
2022/04/27 10:04:18;;;;;;;5.47;4.13;;;;;;;;;;5096214;28;20029;-82
2022/04/27 10:06:44;;;;;;;5.40;3.97;;;;;;;;;;5093927;28;20032;-81
2022/04/27 10:09:10;;;;;;;4.45;3.30;;;;;;;;;;5094733;28;20021;-81
2022/04/27 10:11:36;;;;;;;4.97;3.30;;;;;;;;;;5092919;28;20532;-81
2022/04/27 10:14:02;;;;;;;4.07;3.50;;;;;;;;;;5099187;28;20156;-81
2022/04/27 10:16:28;;;;;;;6.90;3.88;;;;;;;;;;5085149;28;20177;-80
2022/04/27 10:18:54;;;;;;;4.93;3.40;;;;;;;;;;5084822;28;20047;-81
2022/04/27 10:21:55;;;;;;;4.28;3.30;;;;;;;;;;5089466;28;20174;-84
2022/04/27 10:24:46;;;;;;;3.97;3.15;;;;;;;;;;5062071;28;20029;-82
2022/04/27 10:27:19;;;;;;;4.50;3.28;;;;;;;;;;5064246;28;20406;-83
2022/04/27 10:29:50;;;;;;;5.95;3.45;;;;;;;;;;5075267;28;20482;-84
2022/04/27 10:32:34;;;;;;;5.55;3.97;;;;;;;;;;5088478;28;20032;-81
2022/04/27 10:35:11;;;;;;;3.78;3.13;;;;;;;;;;5076971;28;20048;-83
2022/04/27 10:37:54;;;;;;;6.57;3.90;;;;;;;;;;5094312;28;20120;-83
2022/04/27 10:40:26;;;;;;;4.53;3.60;;;;;;;;;;5092772;28;20020;-82
2022/04/27 10:42:51;;;;;;;5.20;3.67;;;;;;;;;;5084013;28;20043;-80
2022/04/27 10:45:23;;;;;;;5.93;3.72;;;;;;;;;;5076209;28;20024;-81
2022/04/27 10:47:49;;;;;;;5.97;3.92;;;;;;;;;;5097291;28;20024;-81
2022/04/27 10:50:19;;;;;;;4.53;3.30;;;;;;;;;;5089417;28;20025;-81
2022/04/27 10:52:51;;;;;;;4.75;3.90;;;;;;;;;;5092180;28;20031;-82
2022/04/27 10:55:35;;;;;;;5.35;4.05;;;;;;;;;;5097605;28;20030;-82
2022/04/27 10:58:34;;;;;;;11.20;4.07;;;;;;;;;;5087700;28;20023;-84
2022/04/27 11:01:03;;;;;;;5.72;3.97;;;;;;;;;;5030185;28;20040;-83
2022/04/27 11:03:38;;;;;;;4.75;3.70;;;;;;;;;;5087314;28;20035;-82
2022/04/27 11:06:06;;;;;;;5.70;3.88;;;;;;;;;;5083832;28;20027;-81
2022/04/27 11:08:57;;;;;;;6.40;4.07;;;;;;;;;;5088069;28;20103;-82
2022/04/27 11:11:26;;;;;;;5.35;4.22;;;;;;;;;;5078276;28;20111;-80
2022/04/27 11:13:58;;;;;;;7.28;4.00;;;;;;;;;;5082367;28;20023;-81
2022/04/27 11:16:24;;;;;;;6.05;4.22;;;;;;;;;;5068578;28;20110;-83
2022/04/27 11:18:57;;;;;;;5.35;4.20;;;;;;;;;;5082391;28;20067;-84
2022/04/27 11:21:24;;;;;;;4.35;3.80;;;;;;;;;;5087894;28;20386;-84
2022/04/27 11:23:50;;;;;;;5.93;4.10;;;;;;;;;;5074025;28;20021;-82
2022/04/27 11:26:16;;;;;;;5.55;4.03;;;;;;;;;;5089998;28;20049;-84
2022/04/27 11:28:43;;;;;;;5.57;4.03;;;;;;;;;;5061618;28;20036;-82
2022/04/27 11:31:09;;;;;;;5.05;3.78;;;;;;;;;;5077866;28;20031;-82
2022/04/27 11:33:40;;;;;;;6.78;3.90;;;;;;;;;;5079282;28;20021;-83
2022/04/27 11:36:26;;;;;;;5.03;3.83;;;;;;;;;;5082409;28;20033;-84
2022/04/27 11:38:52;;;;;;;5.75;3.25;;;;;;;;;;5056800;28;20417;-82
2022/04/27 11:41:19;;;;;;;4.88;3.58;;;;;;;;;;5070231;28;20016;-80
2022/04/27 11:43:46;;;;;;;4.90;3.70;;;;;;;;;;5109187;28;20218;-82
2022/04/27 11:46:12;;;;;;;5.97;4.05;;;;;;;;;;5091191;28;20031;-83
2022/04/27 11:48:37;;;;;;;4.32;3.42;;;;;;;;;;5076625;28;20498;-82
2022/04/27 11:51:03;;;;;;;5.07;4.00;;;;;;;;;;5082996;28;20028;-82
2022/04/27 11:53:29;;;;;;;4.78;3.95;;;;;;;;;;5081762;28;20020;-81
2022/04/27 11:55:55;;;;;;;4.15;3.38;;;;;;;;;;5078369;28;20032;-81
2022/04/27 11:58:27;;;;;;;3.65;3.10;;;;;;;;;;5076738;28;20397;-81
2022/04/27 12:01:02;;;;;;;4.32;3.47;;;;;;;;;;5076019;28;20043;-81
2022/04/27 12:03:32;;;;;;;4.63;3.20;;;;;;;;;;5072172;28;20029;-81
2022/04/27 12:05:57;;;;;;;3.97;3.28;;;;;;;;;;5062098;28;20036;-83
2022/04/27 12:08:25;;;;;;;4.30;3.50;;;;;;;;;;5075369;28;20024;-83
2022/04/27 12:10:50;;;;;;;4.80;3.58;;;;;;;;;;5078122;28;20040;-84
2022/04/27 12:13:18;;;;;;;4.13;3.58;;;;;;;;;;5064751;28;20025;-83
2022/04/27 12:15:48;;;;;;;5.00;3.40;;;;;;;;;;5072432;28;20024;-82
2022/04/27 12:18:15;;;;;;;3.63;3.25;;;;;;;;;;5079279;28;20058;-83
2022/04/27 12:20:42;;;;;;;4.25;3.15;;;;;;;;;;5059777;28;20032;-85
2022/04/27 12:23:17;;;;;;;5.70;3.60;;;;;;;;;;5060162;28;20071;-82
2022/04/27 12:25:53;;;;;;;7.72;3.70;;;;;;;;;;5075573;28;20039;-84
2022/04/27 12:28:34;;;;;;;5.25;3.72;;;;;;;;;;5076446;28;20031;-83
2022/04/27 12:31:03;;;;;;;5.72;3.67;;;;;;;;;;5045092;28;20033;-84
2022/04/27 12:33:31;;;;;;;4.30;3.35;;;;;;;;;;5077282;28;20040;-80
2022/04/27 12:38:56;;;;;;;5.78;3.60;;;;;;;;;;5077179;28;20075;-85
2022/04/27 12:41:31;;;;;;;4.90;3.63;;;;;;;;;;5076962;28;20086;-84
2022/04/27 12:44:05;;;;;;;4.72;3.92;;;;;;;;;;5074049;28;20088;-84
2022/04/27 12:46:31;;;;;;;4.68;3.78;;;;;;;;;;5075345;28;20024;-78
2022/04/27 12:49:04;;;;;;;4.10;3.25;;;;;;;;;;5070176;28;20048;-83
2022/04/27 12:51:33;;;;;;;5.20;3.50;;;;;;;;;;5082908;28;20128;-80
2022/04/27 12:53:59;;;;;;;4.80;3.72;;;;;;;;;;5063040;28;20016;-81
2022/04/27 12:56:43;;;;;;;4.47;3.20;;;;;;;;;;5056468;28;20062;-80
2022/04/27 12:59:12;;;;;;;7.90;3.30;;;;;;;;;;5070811;28;20056;-81
2022/04/27 13:01:38;;;;;;;3.50;2.95;;;;;;;;;;5070227;28;20031;-82
2022/04/27 13:04:05;;;;;;;4.82;3.53;;;;;;;;;;5034233;28;20048;-81
2022/04/27 13:06:30;;;;;;;3.95;3.15;;;;;;;;;;5065935;28;20024;-80
2022/04/27 13:11:56;;;;;;;4.75;3.90;;;;;;;;;;5075027;28;20054;-82
2022/04/27 13:14:25;;;;;;;4.20;3.40;;;;;;;;;;5070477;28;20438;-82
2022/04/27 13:16:52;;;;;;;6.35;3.30;;;;;;;;;;5073480;28;20024;-80
2022/04/27 13:19:18;;;;;;;4.93;3.53;;;;;;;;;;5075940;28;20041;-81
2022/04/27 13:21:43;;;;;;;5.50;4.00;;;;;;;;;;5073278;28;20077;-81
2022/04/27 13:24:08;;;;;;;5.75;3.47;;;;;;;;;;5073627;28;20032;-81
2022/04/27 13:26:34;;;;;;;4.68;3.42;;;;;;;;;;5072598;28;20131;-81
2022/04/27 13:29:00;;;;;;;5.20;3.70;;;;;;;;;;5070918;28;20390;-77
2022/04/27 13:31:25;;;;;;;3.70;3.33;;;;;;;;;;5076296;28;20020;-83
2022/04/27 13:33:51;;;;;;;5.18;3.45;;;;;;;;;;5078844;28;20029;-82
2022/04/27 13:36:16;;;;;;;6.68;3.67;;;;;;;;;;5076091;28;20070;-80
2022/04/27 13:38:41;;;;;;;3.70;3.38;;;;;;;;;;5077282;28;20035;-78
2022/04/27 13:41:07;;;;;;;6.05;3.60;;;;;;;;;;5075785;28;20428;-81
2022/04/27 13:43:33;;;;;;;4.60;3.25;;;;;;;;;;5077300;28;20363;-82
2022/04/27 13:45:58;;;;;;;3.63;3.05;;;;;;;;;;5070404;28;20078;-80
2022/04/27 13:48:24;;;;;;;3.53;3.17;;;;;;;;;;5056687;28;20055;-83
2022/04/27 13:50:50;;;;;;;4.07;3.20;;;;;;;;;;5059239;28;20016;-80
2022/04/27 13:53:16;;;;;;;3.65;3.13;;;;;;;;;;5062471;28;20041;-82
2022/04/27 13:55:42;;;;;;;4.72;3.10;;;;;;;;;;5076019;28;20024;-84
2022/04/27 13:58:08;;;;;;;5.53;3.58;;;;;;;;;;5072175;28;20109;-81
2022/04/27 14:00:33;;;;;;;5.38;3.28;;;;;;;;;;5066053;28;20529;-84
2022/04/27 14:02:59;;;;;;;5.40;3.33;;;;;;;;;;5066595;28;20032;-81
2022/04/27 14:05:24;;;;;;;6.10;3.20;;;;;;;;;;5080898;28;20009;-82
2022/04/27 14:07:50;;;;;;;6.60;4.10;;;;;;;;;;5081578;28;20020;-79
2022/04/27 14:10:16;;;;;;;4.35;3.67;;;;;;;;;;5084901;28;20021;-79
2022/04/27 14:15:29;;;;;;;4.60;3.88;;;;;;;;;;5090185;28;20059;-80
2022/04/27 14:20:40;;;;;;;6.03;3.72;;;;;;;;;;5103667;28;20031;-79
2022/04/27 14:23:07;;;;;;;4.20;3.28;;;;;;;;;;5107607;28;20071;-79
2022/04/27 14:25:33;;;;;;;4.88;3.67;;;;;;;;;;5104070;28;20031;-80
2022/04/27 14:27:58;;;;;;;3.80;3.25;;;;;;;;;;5101571;28;20024;-80
2022/04/27 14:30:24;;;;;;;5.57;3.50;;;;;;;;;;5089217;28;20112;-84
2022/04/27 14:32:50;;;;;;;4.95;3.08;;;;;;;;;;5067041;28;20032;-82
2022/04/27 14:35:18;;;;;;;3.90;3.35;;;;;;;;;;5064529;28;20435;-80
2022/04/27 14:37:45;;;;;;;5.28;3.63;;;;;;;;;;5081765;28;20032;-81
2022/04/27 14:40:11;;;;;;;4.50;3.70;;;;;;;;;;5080510;28;20066;-83
2022/04/27 14:42:36;;;;;;;5.85;3.10;;;;;;;;;;5080812;28;20121;-81
2022/04/27 14:45:02;;;;;;;4.32;3.60;;;;;;;;;;5062466;28;20052;-80
2022/04/27 14:47:28;;;;;;;3.63;3.08;;;;;;;;;;5078476;28;20049;-79
2022/04/27 14:49:55;;;;;;;3.83;3.40;;;;;;;;;;5057487;28;20033;-83
2022/04/27 14:52:20;;;;;;;4.90;3.55;;;;;;;;;;5077935;28;20028;-81
2022/04/27 14:54:46;;;;;;;5.05;3.38;;;;;;;;;;5062689;28;20027;-82
2022/04/27 14:57:11;;;;;;;7.72;3.67;;;;;;;;;;5084400;28;20056;-81